sensor_id;sensor_type;location;lat;lon;timestamp;pressure;altitude;pressure_sealevel;temperature;humidity
29383;BME280;16365;51.598;7.668;2023-01-29T00:00:01;102343.91;;;4.76;46.27
29383;BME280;16365;51.598;7.668;2023-01-29T00:02:27;102334.00;;;4.75;46.25
29383;BME280;16365;51.598;7.668;2023-01-29T00:04:53;102330.44;;;4.75;45.59
29383;BME280;16365;51.598;7.668;2023-01-29T00:07:24;102336.16;;;4.73;45.60
29383;BME280;16365;51.598;7.668;2023-01-29T00:09:50;102341.91;;;4.72;45.63
29383;BME280;16365;51.598;7.668;2023-01-29T00:12:17;102329.53;;;4.69;46.11
29383;BME280;16365;51.598;7.668;2023-01-29T00:14:44;102330.56;;;4.68;45.72
29383;BME280;16365;51.598;7.668;2023-01-29T00:17:10;102328.09;;;4.67;46.06
29383;BME280;16365;51.598;7.668;2023-01-29T00:19:36;102320.34;;;4.63;46.27
29383;BME280;16365;51.598;7.668;2023-01-29T00:22:03;102316.75;;;4.63;46.05
29383;BME280;16365;51.598;7.668;2023-01-29T00:24:29;102321.41;;;4.62;46.47
29383;BME280;16365;51.598;7.668;2023-01-29T00:26:56;102314.53;;;4.60;45.99
29383;BME280;16365;51.598;7.668;2023-01-29T00:29:23;102319.41;;;4.58;46.14
29383;BME280;16365;51.598;7.668;2023-01-29T00:31:49;102318.34;;;4.59;45.79
29383;BME280;16365;51.598;7.668;2023-01-29T00:34:16;102310.09;;;4.59;46.41
29383;BME280;16365;51.598;7.668;2023-01-29T00:36:42;102313.69;;;4.59;45.90
29383;BME280;16365;51.598;7.668;2023-01-29T00:39:10;102316.66;;;4.58;46.52
29383;BME280;16365;51.598;7.668;2023-01-29T00:41:37;102310.94;;;4.59;46.35
29383;BME280;16365;51.598;7.668;2023-01-29T00:44:22;102316.66;;;4.58;46.17
29383;BME280;16365;51.598;7.668;2023-01-29T00:47:07;102320.50;;;4.57;46.38
29383;BME280;16365;51.598;7.668;2023-01-29T00:49:53;102316.09;;;4.56;46.23
29383;BME280;16365;51.598;7.668;2023-01-29T00:52:20;102313.56;;;4.54;45.80
29383;BME280;16365;51.598;7.668;2023-01-29T00:54:50;102312.53;;;4.55;46.58
29383;BME280;16365;51.598;7.668;2023-01-29T00:57:17;102310.00;;;4.54;45.86
29383;BME280;16365;51.598;7.668;2023-01-29T00:59:43;102319.94;;;4.55;46.18
29383;BME280;16365;51.598;7.668;2023-01-29T01:02:09;102323.75;;;4.54;46.04
29383;BME280;16365;51.598;7.668;2023-01-29T01:04:56;102327.56;;;4.53;45.84
29383;BME280;16365;51.598;7.668;2023-01-29T01:07:25;102322.34;;;4.51;46.33
29383;BME280;16365;51.598;7.668;2023-01-29T01:09:51;102332.50;;;4.51;46.33
29383;BME280;16365;51.598;7.668;2023-01-29T01:12:37;102327.22;;;4.49;46.01
29383;BME280;16365;51.598;7.668;2023-01-29T01:15:04;102336.31;;;4.50;46.18
29383;BME280;16365;51.598;7.668;2023-01-29T01:17:30;102328.09;;;4.50;46.12
29383;BME280;16365;51.598;7.668;2023-01-29T01:19:57;102321.50;;;4.51;46.27
29383;BME280;16365;51.598;7.668;2023-01-29T01:22:23;102322.06;;;4.53;46.18
29383;BME280;16365;51.598;7.668;2023-01-29T01:24:49;102317.41;;;4.53;46.50
29383;BME280;16365;51.598;7.668;2023-01-29T01:27:16;102299.84;;;4.54;46.46
29383;BME280;16365;51.598;7.668;2023-01-29T01:29:45;102297.97;;;4.55;45.83
29383;BME280;16365;51.598;7.668;2023-01-29T01:32:12;102289.72;;;4.55;46.23
29383;BME280;16365;51.598;7.668;2023-01-29T01:34:38;102284.44;;;4.53;46.35
29383;BME280;16365;51.598;7.668;2023-01-29T01:37:04;102280.06;;;4.52;46.42
29383;BME280;16365;51.598;7.668;2023-01-29T01:39:31;102269.31;;;4.51;45.75
29383;BME280;16365;51.598;7.668;2023-01-29T01:41:57;102274.22;;;4.49;46.53
29383;BME280;16365;51.598;7.668;2023-01-29T01:47:08;102275.56;;;4.46;46.08
29383;BME280;16365;51.598;7.668;2023-01-29T01:49:35;102277.47;;;4.46;46.34
29383;BME280;16365;51.598;7.668;2023-01-29T01:52:01;102269.47;;;4.44;46.03
29383;BME280;16365;51.598;7.668;2023-01-29T01:54:28;102282.38;;;4.44;46.44
29383;BME280;16365;51.598;7.668;2023-01-29T01:56:58;102280.72;;;4.43;46.40
29383;BME280;16365;51.598;7.668;2023-01-29T01:59:30;102278.78;;;4.43;46.45
29383;BME280;16365;51.598;7.668;2023-01-29T02:01:57;102284.53;;;4.42;45.96
29383;BME280;16365;51.598;7.668;2023-01-29T02:04:24;102277.38;;;4.41;46.10
29383;BME280;16365;51.598;7.668;2023-01-29T02:07:11;102285.84;;;4.39;46.40
29383;BME280;16365;51.598;7.668;2023-01-29T02:12:26;102294.34;;;4.37;46.52
29383;BME280;16365;51.598;7.668;2023-01-29T02:14:56;102292.44;;;4.38;46.49
29383;BME280;16365;51.598;7.668;2023-01-29T02:17:22;102294.09;;;4.39;46.21
29383;BME280;16365;51.598;7.668;2023-01-29T02:19:52;102292.19;;;4.39;46.55
29383;BME280;16365;51.598;7.668;2023-01-29T02:22:28;102294.69;;;4.41;46.73
29383;BME280;16365;51.598;7.668;2023-01-29T02:30:32;102302.19;;;4.46;46.08
29383;BME280;16365;51.598;7.668;2023-01-29T02:33:04;102288.47;;;4.46;46.52
29383;BME280;16365;51.598;7.668;2023-01-29T02:35:37;102298.09;;;4.48;46.73
29383;BME280;16365;51.598;7.668;2023-01-29T02:38:16;102298.94;;;4.49;46.35
29383;BME280;16365;51.598;7.668;2023-01-29T02:41:09;102303.38;;;4.50;46.40
29383;BME280;16365;51.598;7.668;2023-01-29T02:43:40;102302.50;;;4.49;45.99
29383;BME280;16365;51.598;7.668;2023-01-29T02:48:46;102305.59;;;4.53;46.57
29383;BME280;16365;51.598;7.668;2023-01-29T02:51:17;102308.94;;;4.55;46.33
29383;BME280;16365;51.598;7.668;2023-01-29T02:56:16;102314.53;;;4.60;46.28
29383;BME280;16365;51.598;7.668;2023-01-29T02:58:45;102311.03;;;4.64;46.08
29383;BME280;16365;51.598;7.668;2023-01-29T03:01:15;102314.94;;;4.69;46.37
29383;BME280;16365;51.598;7.668;2023-01-29T03:03:44;102312.50;;;4.72;46.48
29383;BME280;16365;51.598;7.668;2023-01-29T03:06:23;102313.94;;;4.75;46.73
29383;BME280;16365;51.598;7.668;2023-01-29T03:09:13;102310.94;;;4.76;46.31
29383;BME280;16365;51.598;7.668;2023-01-29T03:11:43;102296.94;;;4.78;46.47
29383;BME280;16365;51.598;7.668;2023-01-29T03:14:12;102305.78;;;4.80;46.46
29383;BME280;16365;51.598;7.668;2023-01-29T03:16:41;102302.78;;;4.81;46.28
29383;BME280;16365;51.598;7.668;2023-01-29T03:19:12;102293.44;;;4.82;46.05
29383;BME280;16365;51.598;7.668;2023-01-29T03:21:51;102290.97;;;4.81;45.90
29383;BME280;16365;51.598;7.668;2023-01-29T03:24:29;102290.13;;;4.80;46.18
29383;BME280;16365;51.598;7.668;2023-01-29T03:27:17;102295.28;;;4.77;46.31
29383;BME280;16365;51.598;7.668;2023-01-29T03:30:05;102292.19;;;4.73;45.86
29383;BME280;16365;51.598;7.668;2023-01-29T03:32:51;102291.63;;;4.71;45.86
29383;BME280;16365;51.598;7.668;2023-01-29T03:35:20;102296.28;;;4.71;45.95
29383;BME280;16365;51.598;7.668;2023-01-29T03:37:58;102298.22;;;4.70;46.36
29383;BME280;16365;51.598;7.668;2023-01-29T03:40:25;102305.63;;;4.70;46.31
29383;BME280;16365;51.598;7.668;2023-01-29T03:45:26;102293.53;;;4.71;46.07
29383;BME280;16365;51.598;7.668;2023-01-29T03:55:47;102281.88;;;4.80;46.08
29383;BME280;16365;51.598;7.668;2023-01-29T04:03:49;102285.88;;;4.89;46.30
29383;BME280;16365;51.598;7.668;2023-01-29T04:06:28;102285.38;;;4.93;46.22
29383;BME280;16365;51.598;7.668;2023-01-29T04:11:23;102281.63;;;4.99;46.61
29383;BME280;16365;51.598;7.668;2023-01-29T04:13:50;102279.19;;;5.02;46.66
29383;BME280;16365;51.598;7.668;2023-01-29T04:16:19;102274.28;;;5.04;46.30
29383;BME280;16365;51.598;7.668;2023-01-29T04:18:48;102274.63;;;5.08;46.39
29383;BME280;16365;51.598;7.668;2023-01-29T04:21:14;102271.34;;;5.11;46.66
29383;BME280;16365;51.598;7.668;2023-01-29T04:23:41;102262.59;;;5.14;46.31
29383;BME280;16365;51.598;7.668;2023-01-29T04:26:24;102263.16;;;5.16;46.55
29383;BME280;16365;51.598;7.668;2023-01-29T04:28:58;102256.09;;;5.20;46.69
29383;BME280;16365;51.598;7.668;2023-01-29T04:31:32;102255.59;;;5.23;46.67
29383;BME280;16365;51.598;7.668;2023-01-29T04:39:24;102243.00;;;5.27;46.59
29383;BME280;16365;51.598;7.668;2023-01-29T04:42:03;102234.75;;;5.27;46.54
29383;BME280;16365;51.598;7.668;2023-01-29T04:44:39;102233.66;;;5.28;46.54
29383;BME280;16365;51.598;7.668;2023-01-29T04:49:40;102225.16;;;5.30;46.41
29383;BME280;16365;51.598;7.668;2023-01-29T04:52:23;102214.47;;;5.33;46.56
29383;BME280;16365;51.598;7.668;2023-01-29T04:55:04;102221.38;;;5.36;46.41
29383;BME280;16365;51.598;7.668;2023-01-29T04:57:42;102227.44;;;5.38;46.51
29383;BME280;16365;51.598;7.668;2023-01-29T05:00:12;102224.16;;;5.41;46.53
29383;BME280;16365;51.598;7.668;2023-01-29T05:02:43;102221.75;;;5.45;46.42
29383;BME280;16365;51.598;7.668;2023-01-29T05:05:10;102205.84;;;5.47;46.36
29383;BME280;16365;51.598;7.668;2023-01-29T05:07:38;102197.88;;;5.50;46.62
29383;BME280;16365;51.598;7.668;2023-01-29T05:10:07;102184.72;;;5.52;46.82
29383;BME280;16365;51.598;7.668;2023-01-29T05:12:34;102186.09;;;5.55;46.25
29383;BME280;16365;51.598;7.668;2023-01-29T05:15:02;102192.19;;;5.57;46.41
29383;BME280;16365;51.598;7.668;2023-01-29T05:17:30;102171.84;;;5.58;46.36
29383;BME280;16365;51.598;7.668;2023-01-29T05:19:56;102177.06;;;5.59;46.41
29383;BME280;16365;51.598;7.668;2023-01-29T05:22:23;102182.34;;;5.61;46.60
29383;BME280;16365;51.598;7.668;2023-01-29T05:24:49;102183.19;;;5.61;46.10
29383;BME280;16365;51.598;7.668;2023-01-29T05:27:16;102184.00;;;5.62;46.17
29383;BME280;16365;51.598;7.668;2023-01-29T05:30:02;102188.69;;;5.61;46.36
29383;BME280;16365;51.598;7.668;2023-01-29T05:32:29;102180.66;;;5.60;46.54
29383;BME280;16365;51.598;7.668;2023-01-29T05:34:55;102189.50;;;5.62;46.08
29383;BME280;16365;51.598;7.668;2023-01-29T05:37:21;102180.97;;;5.63;46.42
29383;BME280;16365;51.598;7.668;2023-01-29T05:39:48;102178.50;;;5.62;46.17
29383;BME280;16365;51.598;7.668;2023-01-29T05:42:14;102178.22;;;5.63;46.37
29383;BME280;16365;51.598;7.668;2023-01-29T05:44:41;102188.97;;;5.65;46.32
29383;BME280;16365;51.598;7.668;2023-01-29T05:47:07;102192.53;;;5.65;46.10
29383;BME280;16365;51.598;7.668;2023-01-29T05:49:34;102193.41;;;5.66;46.32
29383;BME280;16365;51.598;7.668;2023-01-29T05:52:02;102198.63;;;5.67;46.29
29383;BME280;16365;51.598;7.668;2023-01-29T05:54:29;102206.63;;;5.69;46.21
29383;BME280;16365;51.598;7.668;2023-01-29T05:56:56;102196.22;;;5.71;46.40
29383;BME280;16365;51.598;7.668;2023-01-29T05:59:22;102206.94;;;5.73;46.44
29383;BME280;16365;51.598;7.668;2023-01-29T06:01:48;102206.69;;;5.74;46.44
29383;BME280;16365;51.598;7.668;2023-01-29T06:04:15;102218.50;;;5.75;46.34
29383;BME280;16365;51.598;7.668;2023-01-29T06:06:41;102220.19;;;5.76;46.11
29383;BME280;16365;51.598;7.668;2023-01-29T06:09:09;102224.34;;;5.78;46.41
29383;BME280;16365;51.598;7.668;2023-01-29T06:11:35;102224.94;;;5.80;46.02
29383;BME280;16365;51.598;7.668;2023-01-29T06:14:02;102221.63;;;5.83;46.40
29383;BME280;16365;51.598;7.668;2023-01-29T06:16:28;102232.38;;;5.85;46.59
29383;BME280;16365;51.598;7.668;2023-01-29T06:18:54;102235.72;;;5.87;46.41
29383;BME280;16365;51.598;7.668;2023-01-29T06:21:21;102228.03;;;5.89;46.46
29383;BME280;16365;51.598;7.668;2023-01-29T06:23:47;102226.44;;;5.93;46.57
29383;BME280;16365;51.598;7.668;2023-01-29T06:26:14;102227.88;;;5.96;46.38
29383;BME280;16365;51.598;7.668;2023-01-29T06:28:42;102227.59;;;5.97;46.80
29383;BME280;16365;51.598;7.668;2023-01-29T06:31:10;102230.69;;;6.01;46.58
29383;BME280;16365;51.598;7.668;2023-01-29T06:33:56;102215.81;;;6.02;46.44
29383;BME280;16365;51.598;7.668;2023-01-29T06:36:23;102210.84;;;6.04;46.54
29383;BME280;16365;51.598;7.668;2023-01-29T06:38:49;102214.44;;;6.04;46.26
29383;BME280;16365;51.598;7.668;2023-01-29T06:41:17;102209.78;;;6.05;46.45
29383;BME280;16365;51.598;7.668;2023-01-29T06:43:43;102215.03;;;6.06;46.33
29383;BME280;16365;51.598;7.668;2023-01-29T06:46:10;102209.25;;;6.08;46.52
29383;BME280;16365;51.598;7.668;2023-01-29T06:48:36;102201.00;;;6.08;46.52
29383;BME280;16365;51.598;7.668;2023-01-29T06:51:03;102213.94;;;6.07;46.47
29383;BME280;16365;51.598;7.668;2023-01-29T06:53:30;102216.41;;;6.09;46.74
29383;BME280;16365;51.598;7.668;2023-01-29T06:55:57;102217.28;;;6.09;46.22
29383;BME280;16365;51.598;7.668;2023-01-29T06:58:23;102225.53;;;6.09;46.40
29383;BME280;16365;51.598;7.668;2023-01-29T07:00:50;102221.69;;;6.10;46.44
29383;BME280;16365;51.598;7.668;2023-01-29T07:03:16;102226.09;;;6.11;46.23
29383;BME280;16365;51.598;7.668;2023-01-29T07:05:42;102228.03;;;6.11;46.28
29383;BME280;16365;51.598;7.668;2023-01-29T07:08:14;102223.59;;;6.10;46.11
29383;BME280;16365;51.598;7.668;2023-01-29T07:10:43;102229.66;;;6.12;46.55
29383;BME280;16365;51.598;7.668;2023-01-29T07:13:10;102220.84;;;6.10;46.29
29383;BME280;16365;51.598;7.668;2023-01-29T07:15:36;102215.34;;;6.10;46.47
29383;BME280;16365;51.598;7.668;2023-01-29T07:18:03;102222.50;;;6.11;46.60
29383;BME280;16365;51.598;7.668;2023-01-29T07:20:30;102228.28;;;6.09;46.28
29383;BME280;16365;51.598;7.668;2023-01-29T07:22:57;102235.19;;;6.12;46.44
29383;BME280;16365;51.598;7.668;2023-01-29T07:25:23;102214.56;;;6.14;46.33
29383;BME280;16365;51.598;7.668;2023-01-29T07:27:50;102214.28;;;6.16;46.44
29383;BME280;16365;51.598;7.668;2023-01-29T07:30:16;102211.28;;;6.17;46.41
29383;BME280;16365;51.598;7.668;2023-01-29T07:32:43;102204.66;;;6.18;46.38
29383;BME280;16365;51.598;7.668;2023-01-29T07:35:09;102213.50;;;6.21;46.51
29383;BME280;16365;51.598;7.668;2023-01-29T07:37:36;102217.41;;;6.25;46.28
29383;BME280;16365;51.598;7.668;2023-01-29T07:40:02;102215.22;;;6.27;46.41
29383;BME280;16365;51.598;7.668;2023-01-29T07:42:31;102221.88;;;6.31;46.39
29383;BME280;16365;51.598;7.668;2023-01-29T07:44:57;102221.91;;;6.36;46.64
29383;BME280;16365;51.598;7.668;2023-01-29T07:47:24;102217.81;;;6.38;46.38
29383;BME280;16365;51.598;7.668;2023-01-29T07:49:50;102212.59;;;6.42;46.40
29383;BME280;16365;51.598;7.668;2023-01-29T07:52:16;102205.72;;;6.44;46.59
29383;BME280;16365;51.598;7.668;2023-01-29T07:54:47;102204.09;;;6.49;46.55
29383;BME280;16365;51.598;7.668;2023-01-29T07:57:13;102200.25;;;6.50;46.28
29383;BME280;16365;51.598;7.668;2023-01-29T07:59:40;102198.06;;;6.52;46.45
29383;BME280;16365;51.598;7.668;2023-01-29T08:02:08;102218.75;;;6.54;46.58
29383;BME280;16365;51.598;7.668;2023-01-29T08:04:35;102200.28;;;6.55;46.37
29383;BME280;16365;51.598;7.668;2023-01-29T08:07:01;102200.84;;;6.57;46.36
29383;BME280;16365;51.598;7.668;2023-01-29T08:09:32;102202.25;;;6.59;46.44
29383;BME280;16365;51.598;7.668;2023-01-29T08:11:58;102189.84;;;6.62;46.49
29383;BME280;16365;51.598;7.668;2023-01-29T08:14:24;102185.75;;;6.64;46.55
29383;BME280;16365;51.598;7.668;2023-01-29T08:16:51;102185.22;;;6.67;46.37
29383;BME280;16365;51.598;7.668;2023-01-29T08:19:17;102188.25;;;6.71;46.40
29383;BME280;16365;51.598;7.668;2023-01-29T08:21:44;102200.97;;;6.72;46.32
29383;BME280;16365;51.598;7.668;2023-01-29T08:24:10;102201.81;;;6.73;46.36
29383;BME280;16365;51.598;7.668;2023-01-29T08:26:36;102206.75;;;6.76;46.34
29383;BME280;16365;51.598;7.668;2023-01-29T08:29:03;102203.50;;;6.79;46.50
29383;BME280;16365;51.598;7.668;2023-01-29T08:31:29;102204.03;;;6.81;46.33
29383;BME280;16365;51.598;7.668;2023-01-29T08:33:55;102197.44;;;6.82;46.39
29383;BME280;16365;51.598;7.668;2023-01-29T08:36:22;102195.81;;;6.86;46.29
29383;BME280;16365;51.598;7.668;2023-01-29T08:38:48;102190.88;;;6.88;46.45
29383;BME280;16365;51.598;7.668;2023-01-29T08:41:14;102173.78;;;6.91;46.37
29383;BME280;16365;51.598;7.668;2023-01-29T08:43:41;102162.50;;;6.92;46.06
29383;BME280;16365;51.598;7.668;2023-01-29T08:46:07;102152.84;;;6.95;46.41
29383;BME280;16365;51.598;7.668;2023-01-29T08:48:34;102154.50;;;6.96;46.18
29383;BME280;16365;51.598;7.668;2023-01-29T08:51:00;102149.84;;;6.97;46.55
29383;BME280;16365;51.598;7.668;2023-01-29T08:53:27;102151.22;;;6.99;46.64
29383;BME280;16365;51.598;7.668;2023-01-29T08:55:53;102158.38;;;7.00;46.49
29383;BME280;16365;51.598;7.668;2023-01-29T08:58:20;102152.88;;;7.00;46.87
29383;BME280;16365;51.598;7.668;2023-01-29T09:00:46;102148.19;;;7.01;46.47
29383;BME280;16365;51.598;7.668;2023-01-29T09:03:12;102147.09;;;7.02;46.43
29383;BME280;16365;51.598;7.668;2023-01-29T09:05:39;102145.72;;;7.04;46.31
29383;BME280;16365;51.598;7.668;2023-01-29T09:08:06;102133.59;;;7.05;46.21
29383;BME280;16365;51.598;7.668;2023-01-29T09:10:34;102135.81;;;7.08;46.58
29383;BME280;16365;51.598;7.668;2023-01-29T09:13:00;102142.75;;;7.11;46.33
29383;BME280;16365;51.598;7.668;2023-01-29T09:15:27;102142.19;;;7.14;46.56
29383;BME280;16365;51.598;7.668;2023-01-29T09:17:54;102132.28;;;7.18;46.77
29383;BME280;16365;51.598;7.668;2023-01-29T09:20:20;102135.03;;;7.23;46.83
29383;BME280;16365;51.598;7.668;2023-01-29T09:22:46;102140.84;;;7.27;46.65
29383;BME280;16365;51.598;7.668;2023-01-29T09:25:14;102142.53;;;7.33;46.62
29383;BME280;16365;51.598;7.668;2023-01-29T09:27:41;102135.66;;;7.40;46.99
29383;BME280;16365;51.598;7.668;2023-01-29T09:30:08;102132.91;;;7.45;46.80
29383;BME280;16365;51.598;7.668;2023-01-29T09:32:34;102128.78;;;7.53;46.80
29383;BME280;16365;51.598;7.668;2023-01-29T09:35:21;102130.19;;;7.61;47.10
29383;BME280;16365;51.598;7.668;2023-01-29T09:37:48;102126.31;;;7.67;46.70
29383;BME280;16365;51.598;7.668;2023-01-29T09:43:15;102123.56;;;7.77;46.42
29383;BME280;16365;51.598;7.668;2023-01-29T09:46:05;102119.44;;;7.80;46.56
29383;BME280;16365;51.598;7.668;2023-01-29T09:48:30;102118.88;;;7.83;46.24
29383;BME280;16365;51.598;7.668;2023-01-29T09:50:59;102113.94;;;7.85;46.08
29383;BME280;16365;51.598;7.668;2023-01-29T09:56:03;102111.16;;;7.85;45.89
29383;BME280;16365;51.598;7.668;2023-01-29T09:58:31;102112.28;;;7.84;46.39
29383;BME280;16365;51.598;7.668;2023-01-29T10:01:04;102109.53;;;7.84;46.37
29383;BME280;16365;51.598;7.668;2023-01-29T10:03:41;102115.59;;;7.86;46.68
29383;BME280;16365;51.598;7.668;2023-01-29T10:06:20;102116.41;;;7.86;46.13
29383;BME280;16365;51.598;7.668;2023-01-29T10:09:01;102121.38;;;7.89;46.86
29383;BME280;16365;51.598;7.668;2023-01-29T10:11:38;102131.88;;;7.92;46.74
29383;BME280;16365;51.598;7.668;2023-01-29T10:14:15;102128.56;;;7.95;46.63
29383;BME280;16365;51.598;7.668;2023-01-29T10:16:59;102126.63;;;8.01;46.17
29383;BME280;16365;51.598;7.668;2023-01-29T10:27:20;102117.25;;;8.28;46.81
29383;BME280;16365;51.598;7.668;2023-01-29T10:29:48;102116.13;;;8.34;46.32
29383;BME280;16365;51.598;7.668;2023-01-29T10:32:17;102111.44;;;8.39;46.99
29383;BME280;16365;51.598;7.668;2023-01-29T10:34:51;102113.66;;;8.42;46.75
29383;BME280;16365;51.598;7.668;2023-01-29T10:37:22;102106.47;;;8.46;46.33
29383;BME280;16365;51.598;7.668;2023-01-29T10:39:51;102098.72;;;8.48;46.57
29383;BME280;16365;51.598;7.668;2023-01-29T10:50:11;102080.47;;;8.53;46.33
29383;BME280;16365;51.598;7.668;2023-01-29T10:55:33;102065.81;;;8.57;46.67
29383;BME280;16365;51.598;7.668;2023-01-29T11:00:43;102064.38;;;8.65;46.17
29383;BME280;16365;51.598;7.668;2023-01-29T11:03:17;102064.34;;;8.70;46.46
29383;BME280;16365;51.598;7.668;2023-01-29T11:08:20;102055.19;;;8.80;46.43
29383;BME280;16365;51.598;7.668;2023-01-29T11:11:01;102062.63;;;8.84;46.25
29383;BME280;16365;51.598;7.668;2023-01-29T11:13:34;102060.44;;;8.86;45.93
29383;BME280;16365;51.598;7.668;2023-01-29T11:16:03;102055.44;;;8.88;45.76
29383;BME280;16365;51.598;7.668;2023-01-29T11:18:47;102058.47;;;8.92;45.68
29383;BME280;16365;51.598;7.668;2023-01-29T11:21:13;102041.59;;;8.93;45.95
29383;BME280;16365;51.598;7.668;2023-01-29T11:23:40;102042.69;;;8.92;45.94
29383;BME280;16365;51.598;7.668;2023-01-29T11:26:06;102039.94;;;8.92;46.17
29383;BME280;16365;51.598;7.668;2023-01-29T11:28:41;102031.34;;;8.94;46.61
29383;BME280;16365;51.598;7.668;2023-01-29T11:33:53;102018.91;;;8.96;45.69
29383;BME280;16365;51.598;7.668;2023-01-29T11:36:34;102012.25;;;8.97;46.15
29383;BME280;16365;51.598;7.668;2023-01-29T11:39:14;102008.94;;;9.00;46.25
29383;BME280;16365;51.598;7.668;2023-01-29T11:41:41;102001.75;;;8.99;45.70
29383;BME280;16365;51.598;7.668;2023-01-29T11:44:18;101989.56;;;9.00;45.38
29383;BME280;16365;51.598;7.668;2023-01-29T11:46:46;101988.75;;;9.00;45.98
29383;BME280;16365;51.598;7.668;2023-01-29T11:49:26;101992.59;;;8.99;45.53
29383;BME280;16365;51.598;7.668;2023-01-29T11:51:55;101987.34;;;8.97;45.87
29383;BME280;16365;51.598;7.668;2023-01-29T11:54:23;101981.25;;;9.00;46.02
29383;BME280;16365;51.598;7.668;2023-01-29T11:56:51;101977.69;;;9.00;45.52
29383;BME280;16365;51.598;7.668;2023-01-29T11:59:26;101980.16;;;9.01;45.67
29383;BME280;16365;51.598;7.668;2023-01-29T12:01:53;101976.25;;;9.02;46.32
29383;BME280;16365;51.598;7.668;2023-01-29T12:04:21;101961.31;;;9.04;45.54
29383;BME280;16365;51.598;7.668;2023-01-29T12:06:49;101957.16;;;9.06;46.00
29383;BME280;16365;51.598;7.668;2023-01-29T12:09:19;101952.16;;;9.08;46.04
29383;BME280;16365;51.598;7.668;2023-01-29T12:11:46;101954.66;;;9.10;45.61
29383;BME280;16365;51.598;7.668;2023-01-29T12:14:22;101947.69;;;9.12;45.71
29383;BME280;16365;51.598;7.668;2023-01-29T12:16:57;101938.28;;;9.13;46.42
29383;BME280;16365;51.598;7.668;2023-01-29T12:22:22;101923.63;;;9.13;45.27
29383;BME280;16365;51.598;7.668;2023-01-29T12:24:56;101908.97;;;9.12;45.45
29383;BME280;16365;51.598;7.668;2023-01-29T12:27:42;101906.19;;;9.12;45.93
29383;BME280;16365;51.598;7.668;2023-01-29T12:30:22;101894.59;;;9.10;45.65
29383;BME280;16365;51.598;7.668;2023-01-29T12:32:52;101887.94;;;9.11;46.29
29383;BME280;16365;51.598;7.668;2023-01-29T12:38:01;101882.13;;;9.13;46.38
29383;BME280;16365;51.598;7.668;2023-01-29T12:40:28;101881.28;;;9.12;46.25
29383;BME280;16365;51.598;7.668;2023-01-29T12:42:59;101880.19;;;9.13;46.35
29383;BME280;16365;51.598;7.668;2023-01-29T12:45:26;101876.59;;;9.13;45.76
29383;BME280;16365;51.598;7.668;2023-01-29T12:47:54;101877.13;;;9.15;45.52
29383;BME280;16365;51.598;7.668;2023-01-29T12:50:23;101870.78;;;9.14;45.54
29383;BME280;16365;51.598;7.668;2023-01-29T12:52:52;101866.06;;;9.15;46.25
29383;BME280;16365;51.598;7.668;2023-01-29T12:55:27;101867.19;;;9.14;45.39
29383;BME280;16365;51.598;7.668;2023-01-29T13:00:21;101872.44;;;9.15;46.01
29383;BME280;16365;51.598;7.668;2023-01-29T13:03:00;101866.06;;;9.15;45.28
29383;BME280;16365;51.598;7.668;2023-01-29T13:05:35;101863.81;;;9.17;45.88
29383;BME280;16365;51.598;7.668;2023-01-29T13:08:39;101848.06;;;9.17;45.89
29383;BME280;16365;51.598;7.668;2023-01-29T13:10:57;101854.13;;;9.19;45.54
29383;BME280;16365;51.598;7.668;2023-01-29T13:13:30;101852.19;;;9.20;45.28
29383;BME280;16365;51.598;7.668;2023-01-29T13:15:58;101861.84;;;9.22;45.76
29383;BME280;16365;51.598;7.668;2023-01-29T13:20:56;101857.38;;;9.26;45.39
29383;BME280;16365;51.598;7.668;2023-01-29T13:23:24;101853.22;;;9.29;45.21
29383;BME280;16365;51.598;7.668;2023-01-29T13:25:55;101852.91;;;9.31;46.04
29383;BME280;16365;51.598;7.668;2023-01-29T13:28:22;101856.22;;;9.33;46.16
29383;BME280;16365;51.598;7.668;2023-01-29T13:33:35;101844.31;;;9.32;45.64
29383;BME280;16365;51.598;7.668;2023-01-29T13:36:02;101845.13;;;9.33;45.37
29383;BME280;16365;51.598;7.668;2023-01-29T13:38:30;101841.84;;;9.31;45.87
29383;BME280;16365;51.598;7.668;2023-01-29T13:41:02;101846.25;;;9.32;45.05
29383;BME280;16365;51.598;7.668;2023-01-29T13:43:33;101844.63;;;9.31;45.62
29383;BME280;16365;51.598;7.668;2023-01-29T13:46:01;101839.06;;;9.31;45.06
29383;BME280;16365;51.598;7.668;2023-01-29T13:48:32;101834.38;;;9.31;45.10
29383;BME280;16365;51.598;7.668;2023-01-29T13:51:02;101829.38;;;9.33;45.50
29383;BME280;16365;51.598;7.668;2023-01-29T13:53:39;101833.50;;;9.36;45.25
29383;BME280;16365;51.598;7.668;2023-01-29T13:58:52;101832.97;;;9.34;45.14
29383;BME280;16365;51.598;7.668;2023-01-29T14:01:48;101832.41;;;9.32;44.97
29383;BME280;16365;51.598;7.668;2023-01-29T14:06:45;101827.50;;;9.29;45.37
29383;BME280;16365;51.598;7.668;2023-01-29T14:11:57;101823.91;;;9.23;45.36
29383;BME280;16365;51.598;7.668;2023-01-29T14:17:09;101802.38;;;9.20;45.06
29383;BME280;16365;51.598;7.668;2023-01-29T14:19:37;101810.13;;;9.18;45.38
29383;BME280;16365;51.598;7.668;2023-01-29T14:22:03;101812.09;;;9.17;45.91
29383;BME280;16365;51.598;7.668;2023-01-29T14:24:30;101817.09;;;9.15;44.89
29383;BME280;16365;51.598;7.668;2023-01-29T14:26:56;101809.09;;;9.14;44.85
29383;BME280;16365;51.598;7.668;2023-01-29T14:29:24;101807.44;;;9.13;44.98
29383;BME280;16365;51.598;7.668;2023-01-29T14:34:40;101812.13;;;9.12;45.31
29383;BME280;16365;51.598;7.668;2023-01-29T14:39:44;101808.84;;;9.10;45.31
29383;BME280;16365;51.598;7.668;2023-01-29T14:42:15;101805.53;;;9.08;45.40
29383;BME280;16365;51.598;7.668;2023-01-29T14:47:19;101804.19;;;9.06;44.90
29383;BME280;16365;51.598;7.668;2023-01-29T14:52:13;101795.63;;;9.02;45.65
29383;BME280;16365;51.598;7.668;2023-01-29T14:54:41;101797.88;;;9.00;45.25
29383;BME280;16365;51.598;7.668;2023-01-29T14:57:11;101789.84;;;8.98;45.45
29383;BME280;16365;51.598;7.668;2023-01-29T15:02:26;101786.25;;;8.98;44.95
29383;BME280;16365;51.598;7.668;2023-01-29T15:04:58;101781.84;;;8.97;44.91